createdAt,value
2023-04-28T00:01:22.421Z,16.02
2023-04-28T00:04:29.635Z,16.33
2023-04-28T00:07:31.635Z,15.85
2023-04-28T00:10:35.499Z,16.27
2023-04-28T00:13:37.984Z,15.00
2023-04-28T00:16:41.570Z,15.00
2023-04-28T00:19:43.737Z,15.00
2023-04-28T00:22:46.388Z,15.35
2023-04-28T00:25:52.528Z,14.13
2023-04-28T00:28:54.494Z,14.45
2023-04-28T00:31:56.633Z,14.25
2023-04-28T00:34:58.506Z,14.40
2023-04-28T00:38:00.451Z,19.60
2023-04-28T00:41:02.577Z,19.38
2023-04-28T00:44:04.591Z,18.83
2023-04-28T00:47:06.461Z,19.48
2023-04-28T00:50:10.448Z,16.95
2023-04-28T00:53:16.092Z,18.13
2023-04-28T00:56:18.095Z,16.92
2023-04-28T00:59:20.819Z,16.98
2023-04-28T01:02:22.948Z,12.63
2023-04-28T01:05:27.308Z,16.48
2023-04-28T01:08:34.768Z,17.83
2023-04-28T01:11:38.353Z,19.38
2023-04-28T01:14:40.616Z,18.55
2023-04-28T01:17:42.601Z,17.70
2023-04-28T01:20:44.377Z,17.00
2023-04-28T01:23:47.008Z,17.25
2023-04-28T01:26:48.746Z,17.63
2023-04-28T01:29:51.764Z,18.02
2023-04-28T01:32:53.699Z,18.48
2023-04-28T01:35:59.080Z,17.80
2023-04-28T01:39:01.078Z,15.77
2023-04-28T01:42:07.707Z,15.30
2023-04-28T01:45:10.396Z,16.42
2023-04-28T01:48:13.016Z,17.00
2023-04-28T01:51:14.810Z,17.83
2023-04-28T01:54:17.071Z,18.95
2023-04-28T01:57:19.555Z,20.45
2023-04-28T02:00:23.933Z,21.23
2023-04-28T02:03:26.279Z,21.77
2023-04-28T02:06:28.428Z,22.50
2023-04-28T02:09:30.430Z,21.30
2023-04-28T02:12:33.000Z,20.20
2023-04-28T02:15:35.399Z,20.47
2023-04-28T02:18:38.210Z,19.50
2023-04-28T02:21:41.647Z,20.80
2023-04-28T02:27:46.127Z,19.25
2023-04-28T02:30:51.046Z,18.30
2023-04-28T02:33:53.169Z,17.67
2023-04-28T02:36:56.633Z,18.30
2023-04-28T02:43:02.926Z,19.55
2023-04-28T02:46:05.211Z,19.58
2023-04-28T02:49:11.641Z,17.50
2023-04-28T02:52:13.495Z,16.80
2023-04-28T02:55:23.680Z,17.17
2023-04-28T02:58:25.642Z,17.35
2023-04-28T03:01:33.615Z,16.40
2023-04-28T03:04:35.844Z,15.45
2023-04-28T03:07:39.564Z,17.88
2023-04-28T03:10:41.691Z,17.52
2023-04-28T03:13:43.534Z,18.00
2023-04-28T03:16:45.517Z,19.35
2023-04-28T03:19:47.378Z,22.00
2023-04-28T03:22:49.468Z,20.13
2023-04-28T03:25:51.396Z,20.60
2023-04-28T03:28:53.676Z,20.02
2023-04-28T03:32:00.143Z,21.02
2023-04-28T03:35:02.148Z,19.95
2023-04-28T03:38:07.194Z,18.73
2023-04-28T03:41:09.007Z,18.67
2023-04-28T03:44:10.787Z,18.13
2023-04-28T03:47:12.698Z,19.98
2023-04-28T03:50:14.677Z,22.98
2023-04-28T03:53:17.320Z,26.25
2023-04-28T03:56:19.295Z,23.95
2023-04-28T03:59:21.208Z,22.80
2023-04-28T04:02:23.076Z,21.88
2023-04-28T04:05:25.221Z,19.08
2023-04-28T04:08:27.174Z,19.10
2023-04-28T04:11:28.967Z,19.10
2023-04-28T04:14:31.019Z,19.35
2023-04-28T04:17:33.216Z,19.13
2023-04-28T04:20:35.093Z,21.50
2023-04-28T04:23:36.859Z,21.25
2023-04-28T04:26:39.480Z,20.65
2023-04-28T04:29:42.175Z,23.45
2023-04-28T04:32:44.085Z,23.00
2023-04-28T04:35:46.102Z,22.70
2023-04-28T04:38:49.519Z,21.58
2023-04-28T04:44:57.849Z,20.80
2023-04-28T04:47:59.722Z,22.02
2023-04-28T04:51:02.472Z,21.98
2023-04-28T04:54:04.493Z,23.08
2023-04-28T04:57:07.144Z,22.00
2023-04-28T05:00:09.789Z,21.20
2023-04-28T05:03:19.106Z,18.45
2023-04-28T05:06:21.450Z,18.50
2023-04-28T05:09:25.698Z,18.55
2023-04-28T05:12:27.521Z,18.30
2023-04-28T05:15:29.879Z,17.90
2023-04-28T05:18:32.267Z,18.40
2023-04-28T05:21:35.618Z,18.83
2023-04-28T05:24:37.472Z,17.15
2023-04-28T05:27:41.066Z,19.17
2023-04-28T05:30:44.930Z,18.00
2023-04-28T05:33:46.945Z,17.88
2023-04-28T05:36:48.932Z,17.05
2023-04-28T05:39:51.440Z,18.05
2023-04-28T05:42:53.573Z,15.53
2023-04-28T05:45:55.778Z,14.25
2023-04-28T05:48:57.959Z,14.23
2023-04-28T05:52:04.372Z,14.80
2023-04-28T05:55:06.553Z,13.75
2023-04-28T05:58:09.058Z,13.40
2023-04-28T06:01:12.048Z,12.93
2023-04-28T06:04:16.169Z,14.02
2023-04-28T06:07:18.387Z,13.93
2023-04-28T06:10:21.956Z,13.43
2023-04-28T06:13:23.745Z,13.48
2023-04-28T06:16:27.195Z,12.32
2023-04-28T06:22:30.854Z,10.77
2023-04-28T06:25:32.801Z,9.25
2023-04-28T06:28:34.754Z,10.82
2023-04-28T06:31:36.624Z,10.02
2023-04-28T06:34:38.404Z,10.32
2023-04-28T06:37:40.197Z,9.90
2023-04-28T06:40:43.675Z,10.10
2023-04-28T06:43:45.474Z,10.50
2023-04-28T06:46:48.906Z,10.18
2023-04-28T06:52:52.703Z,9.05
2023-04-28T06:55:54.591Z,10.98
2023-04-28T06:58:58.886Z,9.57
2023-04-28T07:02:02.008Z,9.90
2023-04-28T07:05:05.121Z,10.23
2023-04-28T07:08:07.141Z,9.52
2023-04-28T07:11:10.540Z,9.32
2023-04-28T07:17:14.318Z,9.23
2023-04-28T07:20:16.334Z,8.93
2023-04-28T07:23:19.065Z,8.38
2023-04-28T07:26:21.569Z,7.13
2023-04-28T07:29:24.718Z,7.32
2023-04-28T07:32:26.598Z,7.00
2023-04-28T07:35:29.192Z,6.65
2023-04-28T07:38:31.129Z,7.40
2023-04-28T07:41:39.749Z,7.45
2023-04-28T07:44:42.354Z,7.15
2023-04-28T07:47:44.337Z,7.63
2023-04-28T07:50:46.668Z,7.15
2023-04-28T07:53:51.563Z,8.48
2023-04-28T07:56:53.404Z,7.95
2023-04-28T07:59:56.521Z,7.90
2023-04-28T08:02:59.380Z,7.70
2023-04-28T08:06:02.455Z,7.80
2023-04-28T08:09:06.173Z,8.02
2023-04-28T08:12:09.052Z,8.20
2023-04-28T08:15:11.348Z,8.43
2023-04-28T08:18:13.284Z,8.88
2023-04-28T08:21:15.092Z,8.70
2023-04-28T08:24:17.986Z,8.68
2023-04-28T08:27:20.088Z,8.73
2023-04-28T08:30:22.092Z,8.35
2023-04-28T08:33:24.774Z,8.45
2023-04-28T08:36:31.817Z,8.38
2023-04-28T08:39:35.217Z,8.60
2023-04-28T08:45:44.883Z,7.97
2023-04-28T08:48:46.956Z,7.88
2023-04-28T08:51:59.077Z,7.45
2023-04-28T08:55:10.368Z,6.63
2023-04-28T08:58:12.693Z,6.32
2023-04-28T09:01:14.713Z,6.07
2023-04-28T09:04:18.345Z,5.57
2023-04-28T09:07:20.837Z,4.75
2023-04-28T09:10:25.084Z,4.72
2023-04-28T09:13:31.685Z,3.75
2023-04-28T09:16:41.739Z,3.85
2023-04-28T09:19:46.151Z,4.07
2023-04-28T09:22:48.115Z,4.13
2023-04-28T09:26:07.679Z,4.28
2023-04-28T09:29:13.841Z,3.72
2023-04-28T09:32:25.188Z,3.80
2023-04-28T09:35:48.306Z,4.03
2023-04-28T09:38:50.913Z,3.70
2023-04-28T09:41:53.074Z,3.90
2023-04-28T09:44:54.948Z,3.63
2023-04-28T09:48:10.905Z,3.22
2023-04-28T09:51:21.289Z,3.20
2023-04-28T09:54:24.400Z,3.08
2023-04-28T09:57:29.518Z,3.08
2023-04-28T10:00:34.289Z,3.30
2023-04-28T10:03:37.730Z,3.28
2023-04-28T10:06:40.403Z,3.47
2023-04-28T10:09:50.694Z,3.00
2023-04-28T10:12:52.802Z,3.17
2023-04-28T10:15:55.584Z,3.17
2023-04-28T10:18:58.101Z,3.72
2023-04-28T10:22:13.666Z,4.30
2023-04-28T10:25:27.007Z,3.83
2023-04-28T10:28:29.263Z,3.80
2023-04-28T10:31:31.051Z,3.80
2023-04-28T10:34:33.950Z,3.50
2023-04-28T10:38:05.798Z,3.65
2023-04-28T10:41:34.029Z,3.28
2023-04-28T10:44:36.158Z,3.30
2023-04-28T10:48:07.994Z,2.88
2023-04-28T10:51:16.420Z,2.90
2023-04-28T10:54:20.115Z,3.10
2023-04-28T10:57:22.939Z,3.50
2023-04-28T11:00:31.839Z,3.28
2023-04-28T11:03:49.112Z,3.75
2023-04-28T11:07:13.359Z,3.22
2023-04-28T11:10:15.381Z,3.05
2023-04-28T11:13:34.809Z,2.90
2023-04-28T11:16:54.722Z,2.38
2023-04-28T11:19:59.778Z,2.15
2023-04-28T11:23:03.832Z,2.20
2023-04-28T11:26:06.032Z,2.00
2023-04-28T11:29:08.756Z,2.08
2023-04-28T11:32:11.211Z,2.13
2023-04-28T11:35:13.122Z,1.88
2023-04-28T11:38:17.255Z,1.70
2023-04-28T11:41:19.378Z,1.73
2023-04-28T11:44:23.200Z,1.60
2023-04-28T11:47:34.701Z,1.67
2023-04-28T11:50:37.492Z,1.65
2023-04-28T11:53:46.295Z,1.60
2023-04-28T11:56:48.988Z,1.40
2023-04-28T11:59:51.377Z,1.50
2023-04-28T12:02:53.823Z,1.58
2023-04-28T12:05:57.990Z,1.50
2023-04-28T12:09:05.856Z,1.50
2023-04-28T12:12:10.648Z,1.67
2023-04-28T12:15:13.490Z,2.05
2023-04-28T12:18:19.504Z,1.80
2023-04-28T12:21:22.154Z,1.92
2023-04-28T12:24:26.129Z,1.90
2023-04-28T12:27:29.143Z,2.20
2023-04-28T12:30:33.317Z,2.17
2023-04-28T12:33:39.522Z,1.88
2023-04-28T12:36:41.442Z,1.85
2023-04-28T12:39:43.455Z,2.15
2023-04-28T12:42:45.502Z,2.25
2023-04-28T12:45:47.785Z,2.80
2023-04-28T12:48:50.044Z,2.38
2023-04-28T12:51:51.845Z,1.95
2023-04-28T12:54:53.577Z,2.08
2023-04-28T12:57:55.346Z,2.63
2023-04-28T13:00:57.078Z,2.85
2023-04-28T13:03:59.636Z,2.10
2023-04-28T13:07:01.723Z,1.40
2023-04-28T13:10:03.773Z,1.98
2023-04-28T13:13:05.784Z,1.70
2023-04-28T13:16:10.717Z,2.30
2023-04-28T13:19:14.621Z,1.92
2023-04-28T13:22:17.610Z,1.92
2023-04-28T13:25:19.369Z,1.02
2023-04-28T13:28:21.148Z,1.15
2023-04-28T13:31:22.984Z,0.73
2023-04-28T13:34:24.976Z,0.75
2023-04-28T13:37:27.015Z,0.98
2023-04-28T13:40:29.232Z,0.90
2023-04-28T13:43:34.041Z,0.80
2023-04-28T13:46:37.560Z,0.80
2023-04-28T13:49:40.064Z,1.00
2023-04-28T13:52:42.689Z,1.10
2023-04-28T13:55:45.538Z,0.90
2023-04-28T13:58:48.919Z,0.98
2023-04-28T14:01:53.160Z,1.70
2023-04-28T14:04:55.969Z,3.20
2023-04-28T14:07:57.931Z,3.72
2023-04-28T14:11:04.636Z,3.30
2023-04-28T14:14:06.452Z,3.58
2023-04-28T14:17:09.535Z,3.28
2023-04-28T14:20:11.827Z,2.58
2023-04-28T14:23:15.633Z,3.30
2023-04-28T14:26:17.595Z,2.67
2023-04-28T14:29:20.994Z,2.90
2023-04-28T14:35:24.955Z,1.75
2023-04-28T14:38:27.797Z,1.88
2023-04-28T14:41:29.568Z,2.20
2023-04-28T14:44:31.597Z,1.98
2023-04-28T14:47:33.623Z,2.35
2023-04-28T14:50:35.371Z,1.90
2023-04-28T14:53:42.334Z,2.15
2023-04-28T14:56:44.644Z,1.70
2023-04-28T14:59:48.370Z,2.10
2023-04-28T15:02:53.713Z,2.10
2023-04-28T15:05:55.639Z,1.90
2023-04-28T15:08:58.381Z,1.77
2023-04-28T15:12:00.321Z,1.70
2023-04-28T15:15:02.119Z,1.80
2023-04-28T15:18:05.082Z,1.70
2023-04-28T15:21:08.564Z,1.40
2023-04-28T15:27:13.729Z,1.65
2023-04-28T15:30:16.655Z,1.50
2023-04-28T15:33:18.693Z,1.10
2023-04-28T15:36:20.994Z,1.17
2023-04-28T15:39:23.903Z,1.50
2023-04-28T15:42:26.875Z,1.25
2023-04-28T15:45:28.676Z,1.20
2023-04-28T15:48:32.153Z,1.10
2023-04-28T15:54:36.498Z,0.90
2023-04-28T15:57:38.993Z,1.00
2023-04-28T16:00:42.264Z,0.90
2023-04-28T16:03:48.437Z,0.75
2023-04-28T16:06:52.888Z,0.95
2023-04-28T16:09:54.926Z,0.98
2023-04-28T16:12:57.449Z,1.20
2023-04-28T16:15:59.841Z,1.30
2023-04-28T16:19:02.489Z,1.45
2023-04-28T16:22:04.280Z,0.93
2023-04-28T16:25:07.579Z,1.10
2023-04-28T16:28:09.549Z,0.80
2023-04-28T16:31:11.723Z,1.05
2023-04-28T16:34:13.932Z,0.90
2023-04-28T16:37:23.464Z,1.13
2023-04-28T16:40:25.473Z,1.00
2023-04-28T16:43:27.500Z,1.02
2023-04-28T16:46:29.927Z,1.13
2023-04-28T16:49:31.790Z,1.00
2023-04-28T16:52:33.716Z,1.30
2023-04-28T16:55:38.616Z,0.90
2023-04-28T16:58:40.826Z,1.10
2023-04-28T17:01:43.396Z,1.02
2023-04-28T17:04:46.012Z,1.20
2023-04-28T17:07:48.662Z,0.87
2023-04-28T17:10:50.777Z,1.00
2023-04-28T17:13:52.543Z,1.17
2023-04-28T17:16:54.926Z,1.30
2023-04-28T17:19:59.442Z,0.98
2023-04-28T17:23:01.253Z,1.00
2023-04-28T17:26:04.965Z,0.98
2023-04-28T17:29:06.841Z,1.10
2023-04-28T17:32:08.654Z,1.25
2023-04-28T17:35:10.659Z,1.15
2023-04-28T17:38:17.208Z,1.20
2023-04-28T17:41:19.850Z,1.08
2023-04-28T17:44:27.949Z,1.03
2023-04-28T17:47:29.911Z,0.90
2023-04-28T17:50:31.711Z,1.25
2023-04-28T17:53:33.473Z,1.10
2023-04-28T17:56:38.965Z,1.00
2023-04-28T17:59:42.598Z,1.23
2023-04-28T18:02:44.494Z,1.60
2023-04-28T18:05:48.039Z,1.02
2023-04-28T18:11:52.177Z,1.00
2023-04-28T18:14:55.129Z,1.00
2023-04-28T18:17:57.729Z,1.10
2023-04-28T18:21:00.852Z,0.77
2023-04-28T18:24:02.931Z,0.90
2023-04-28T18:27:05.529Z,0.88
2023-04-28T18:30:08.166Z,0.83
2023-04-28T18:33:10.358Z,1.10
2023-04-28T18:36:12.374Z,1.00
2023-04-28T18:39:15.265Z,1.63
2023-04-28T18:42:17.040Z,1.50
2023-04-28T18:45:19.072Z,1.70
2023-04-28T18:48:22.062Z,1.45
2023-04-28T18:51:25.726Z,1.30
2023-04-28T18:54:28.886Z,1.20
2023-04-28T18:57:33.325Z,1.08
2023-04-28T19:06:41.697Z,1.10
2023-04-28T19:09:53.502Z,1.00
2023-04-28T19:12:56.533Z,1.20
2023-04-28T19:15:58.366Z,1.48
2023-04-28T19:19:00.244Z,1.20
2023-04-28T19:22:03.189Z,1.27
2023-04-28T19:25:06.946Z,1.80
2023-04-28T19:28:10.933Z,1.90
2023-04-28T19:31:12.908Z,2.20
2023-04-28T19:34:16.624Z,2.95
2023-04-28T19:37:19.234Z,2.67
2023-04-28T19:40:22.127Z,3.00
2023-04-28T19:43:24.357Z,3.13
2023-04-28T19:46:26.465Z,3.00
2023-04-28T19:49:28.501Z,2.90
2023-04-28T19:52:30.329Z,3.30
2023-04-28T19:55:32.159Z,3.10
2023-04-28T19:58:33.989Z,3.38
2023-04-28T20:01:35.767Z,3.55
2023-04-28T20:04:40.645Z,3.35
2023-04-28T20:07:42.879Z,3.47
2023-04-28T20:10:45.957Z,3.50
2023-04-28T20:13:48.634Z,3.78
2023-04-28T20:16:52.250Z,3.83
2023-04-28T20:19:53.989Z,4.07
2023-04-28T20:22:56.010Z,3.70
2023-04-28T20:25:59.104Z,4.28
2023-04-28T20:29:01.748Z,3.70
2023-04-28T20:32:04.737Z,3.93
2023-04-28T20:35:09.034Z,4.35
2023-04-28T20:38:10.867Z,4.40
2023-04-28T20:41:15.156Z,4.97
2023-04-28T20:44:17.040Z,4.88
2023-04-28T20:47:21.313Z,4.90
2023-04-28T20:50:23.134Z,6.10
2023-04-28T20:53:25.028Z,6.60
2023-04-28T20:56:27.398Z,6.57
2023-04-28T20:59:32.452Z,7.00
2023-04-28T21:02:36.265Z,6.85
2023-04-28T21:05:44.160Z,8.10
2023-04-28T21:08:46.130Z,8.35
2023-04-28T21:11:48.114Z,8.23
2023-04-28T21:14:49.867Z,10.55
2023-04-28T21:17:51.756Z,10.80
2023-04-28T21:20:54.641Z,11.13
2023-04-28T21:23:56.474Z,11.30
2023-04-28T21:26:59.616Z,12.25
2023-04-28T21:30:01.631Z,13.10
2023-04-28T21:33:03.564Z,13.20
2023-04-28T21:36:07.890Z,14.25
2023-04-28T21:39:10.482Z,15.20
2023-04-28T21:42:13.981Z,14.70
2023-04-28T21:48:17.576Z,14.25
2023-04-28T21:51:19.300Z,15.52
2023-04-28T21:54:21.333Z,16.50
2023-04-28T21:57:23.330Z,16.73
2023-04-28T22:00:26.070Z,17.70
2023-04-28T22:03:36.410Z,17.10
2023-04-28T22:06:38.316Z,17.15
2023-04-28T22:09:40.103Z,18.73
2023-04-28T22:12:46.685Z,20.85
2023-04-28T22:15:48.655Z,21.20
2023-04-28T22:18:55.237Z,21.48
2023-04-28T22:21:57.877Z,22.35
2023-04-28T22:25:00.265Z,21.63
2023-04-28T22:28:02.065Z,23.70
2023-04-28T22:31:04.382Z,27.33
2023-04-28T22:34:09.868Z,25.92
2023-04-28T22:37:12.766Z,26.90
2023-04-28T22:40:14.898Z,24.85
2023-04-28T22:43:17.569Z,26.42
2023-04-28T22:46:19.423Z,25.70
2023-04-28T22:49:25.723Z,24.08
2023-04-28T22:52:27.616Z,22.30
2023-04-28T22:55:29.664Z,25.17
2023-04-28T22:58:31.380Z,24.15
2023-04-28T23:01:35.442Z,23.92
2023-04-28T23:04:39.972Z,22.63
2023-04-28T23:07:44.124Z,23.92
2023-04-28T23:10:46.417Z,22.05
2023-04-28T23:13:48.485Z,22.40
2023-04-28T23:16:50.512Z,23.33
2023-04-28T23:19:52.501Z,21.35
2023-04-28T23:22:56.691Z,20.88
2023-04-28T23:25:59.558Z,24.15
2023-04-28T23:29:01.334Z,23.10
2023-04-28T23:32:04.053Z,23.67
2023-04-28T23:35:06.764Z,24.08
2023-04-28T23:38:09.004Z,21.75
2023-04-28T23:41:10.869Z,24.65
2023-04-28T23:44:13.026Z,24.25
2023-04-28T23:47:14.895Z,25.08
2023-04-28T23:50:16.986Z,24.73
2023-04-28T23:53:19.016Z,25.67
2023-04-28T23:56:25.646Z,26.85
2023-04-28T23:59:27.512Z,27.73
